sensor_id;sensor_type;location;lat;lon;timestamp;P1;durP1;ratioP1;P2;durP2;ratioP2
6547;SDS011;3307;52.416;16.862;2023-03-21T00:00:14;19.33;;;14.03;;
6547;SDS011;3307;52.416;16.862;2023-03-21T00:02:41;20.30;;;14.27;;
6547;SDS011;3307;52.416;16.862;2023-03-21T00:05:06;19.23;;;14.90;;
6547;SDS011;3307;52.416;16.862;2023-03-21T00:07:32;21.20;;;13.93;;
6547;SDS011;3307;52.416;16.862;2023-03-21T00:09:57;22.17;;;15.90;;
6547;SDS011;3307;52.416;16.862;2023-03-21T00:12:23;21.17;;;15.57;;
6547;SDS011;3307;52.416;16.862;2023-03-21T00:14:48;21.07;;;15.60;;
6547;SDS011;3307;52.416;16.862;2023-03-21T00:17:14;20.10;;;14.60;;
6547;SDS011;3307;52.416;16.862;2023-03-21T00:19:40;19.90;;;14.00;;
6547;SDS011;3307;52.416;16.862;2023-03-21T00:22:06;20.70;;;14.27;;
6547;SDS011;3307;52.416;16.862;2023-03-21T00:24:32;18.00;;;15.10;;
6547;SDS011;3307;52.416;16.862;2023-03-21T00:26:57;21.80;;;16.00;;
6547;SDS011;3307;52.416;16.862;2023-03-21T00:29:23;20.03;;;15.17;;
6547;SDS011;3307;52.416;16.862;2023-03-21T00:31:48;18.13;;;14.97;;
6547;SDS011;3307;52.416;16.862;2023-03-21T00:34:14;21.17;;;16.07;;
6547;SDS011;3307;52.416;16.862;2023-03-21T00:36:39;24.97;;;15.53;;
6547;SDS011;3307;52.416;16.862;2023-03-21T00:39:05;21.73;;;15.73;;
6547;SDS011;3307;52.416;16.862;2023-03-21T00:41:31;20.80;;;16.27;;
6547;SDS011;3307;52.416;16.862;2023-03-21T00:43:57;21.50;;;14.77;;
6547;SDS011;3307;52.416;16.862;2023-03-21T00:46:22;20.00;;;15.90;;
6547;SDS011;3307;52.416;16.862;2023-03-21T00:48:48;18.40;;;14.43;;
6547;SDS011;3307;52.416;16.862;2023-03-21T00:51:17;20.93;;;15.70;;
6547;SDS011;3307;52.416;16.862;2023-03-21T00:53:51;20.98;;;15.10;;
6547;SDS011;3307;52.416;16.862;2023-03-21T00:56:18;16.58;;;13.73;;
6547;SDS011;3307;52.416;16.862;2023-03-21T00:58:43;17.87;;;15.20;;
6547;SDS011;3307;52.416;16.862;2023-03-21T01:01:08;22.33;;;15.47;;
6547;SDS011;3307;52.416;16.862;2023-03-21T01:03:34;22.87;;;16.60;;
6547;SDS011;3307;52.416;16.862;2023-03-21T01:06:07;20.33;;;14.52;;
6547;SDS011;3307;52.416;16.862;2023-03-21T01:08:38;19.13;;;14.80;;
6547;SDS011;3307;52.416;16.862;2023-03-21T01:11:09;19.58;;;14.00;;
6547;SDS011;3307;52.416;16.862;2023-03-21T01:13:36;23.73;;;16.35;;
6547;SDS011;3307;52.416;16.862;2023-03-21T01:16:02;20.50;;;14.00;;
6547;SDS011;3307;52.416;16.862;2023-03-21T01:18:29;21.15;;;16.13;;
6547;SDS011;3307;52.416;16.862;2023-03-21T01:20:55;21.67;;;15.17;;
6547;SDS011;3307;52.416;16.862;2023-03-21T01:23:22;17.95;;;14.45;;
6547;SDS011;3307;52.416;16.862;2023-03-21T01:25:49;22.58;;;15.30;;
6547;SDS011;3307;52.416;16.862;2023-03-21T01:28:16;20.20;;;14.55;;
6547;SDS011;3307;52.416;16.862;2023-03-21T01:30:48;18.53;;;14.03;;
6547;SDS011;3307;52.416;16.862;2023-03-21T01:33:15;21.73;;;14.77;;
6547;SDS011;3307;52.416;16.862;2023-03-21T01:35:41;21.95;;;14.32;;
6547;SDS011;3307;52.416;16.862;2023-03-21T01:38:07;16.67;;;13.50;;
6547;SDS011;3307;52.416;16.862;2023-03-21T01:40:34;19.60;;;14.70;;
6547;SDS011;3307;52.416;16.862;2023-03-21T01:42:59;19.27;;;13.00;;
6547;SDS011;3307;52.416;16.862;2023-03-21T01:48:25;16.48;;;13.27;;
6547;SDS011;3307;52.416;16.862;2023-03-21T01:50:51;17.00;;;13.70;;
6547;SDS011;3307;52.416;16.862;2023-03-21T01:53:21;20.00;;;12.83;;
6547;SDS011;3307;52.416;16.862;2023-03-21T01:55:48;20.45;;;13.18;;
6547;SDS011;3307;52.416;16.862;2023-03-21T01:58:14;19.15;;;15.30;;
6547;SDS011;3307;52.416;16.862;2023-03-21T02:00:42;17.65;;;13.90;;
6547;SDS011;3307;52.416;16.862;2023-03-21T02:03:09;17.77;;;13.80;;
6547;SDS011;3307;52.416;16.862;2023-03-21T02:08:27;20.33;;;13.55;;
6547;SDS011;3307;52.416;16.862;2023-03-21T02:10:54;17.35;;;13.52;;
6547;SDS011;3307;52.416;16.862;2023-03-21T02:13:19;19.13;;;13.70;;
6547;SDS011;3307;52.416;16.862;2023-03-21T02:15:47;15.95;;;13.15;;
6547;SDS011;3307;52.416;16.862;2023-03-21T02:34:50;20.98;;;14.55;;
6547;SDS011;3307;52.416;16.862;2023-03-21T02:37:41;22.17;;;15.25;;
6547;SDS011;3307;52.416;16.862;2023-03-21T02:43:23;17.75;;;13.07;;
6547;SDS011;3307;52.416;16.862;2023-03-21T02:46:12;17.10;;;13.30;;
6547;SDS011;3307;52.416;16.862;2023-03-21T02:48:58;20.30;;;14.25;;
6547;SDS011;3307;52.416;16.862;2023-03-21T02:51:27;20.08;;;13.82;;
6547;SDS011;3307;52.416;16.862;2023-03-21T02:53:58;18.00;;;14.07;;
6547;SDS011;3307;52.416;16.862;2023-03-21T02:56:26;18.70;;;12.93;;
6547;SDS011;3307;52.416;16.862;2023-03-21T02:58:52;18.33;;;12.10;;
6547;SDS011;3307;52.416;16.862;2023-03-21T03:01:17;15.97;;;12.30;;
6547;SDS011;3307;52.416;16.862;2023-03-21T03:03:43;14.00;;;12.17;;
6547;SDS011;3307;52.416;16.862;2023-03-21T03:06:13;16.77;;;11.93;;
6547;SDS011;3307;52.416;16.862;2023-03-21T03:08:46;17.27;;;13.25;;
6547;SDS011;3307;52.416;16.862;2023-03-21T03:11:40;17.88;;;13.27;;
6547;SDS011;3307;52.416;16.862;2023-03-21T03:16:43;18.02;;;13.27;;
6547;SDS011;3307;52.416;16.862;2023-03-21T03:19:29;15.48;;;12.25;;
6547;SDS011;3307;52.416;16.862;2023-03-21T03:22:01;15.77;;;12.10;;
6547;SDS011;3307;52.416;16.862;2023-03-21T03:24:38;14.80;;;11.27;;
6547;SDS011;3307;52.416;16.862;2023-03-21T03:27:12;18.55;;;11.82;;
6547;SDS011;3307;52.416;16.862;2023-03-21T03:29:43;13.90;;;11.25;;
6547;SDS011;3307;52.416;16.862;2023-03-21T03:32:12;14.65;;;11.55;;
6547;SDS011;3307;52.416;16.862;2023-03-21T03:34:49;13.93;;;11.73;;
6547;SDS011;3307;52.416;16.862;2023-03-21T03:37:20;15.63;;;12.48;;
6547;SDS011;3307;52.416;16.862;2023-03-21T03:39:53;18.60;;;12.18;;
6547;SDS011;3307;52.416;16.862;2023-03-21T03:43:09;16.40;;;12.45;;
6547;SDS011;3307;52.416;16.862;2023-03-21T03:45:12;15.50;;;13.75;;
6547;SDS011;3307;52.416;16.862;2023-03-21T03:52:33;15.98;;;12.15;;
6547;SDS011;3307;52.416;16.862;2023-03-21T03:55:02;13.18;;;11.77;;
6547;SDS011;3307;52.416;16.862;2023-03-21T03:57:28;18.63;;;13.37;;
6547;SDS011;3307;52.416;16.862;2023-03-21T03:59:54;18.23;;;13.10;;
6547;SDS011;3307;52.416;16.862;2023-03-21T04:02:19;20.40;;;12.53;;
6547;SDS011;3307;52.416;16.862;2023-03-21T04:04:45;18.63;;;12.40;;
6547;SDS011;3307;52.416;16.862;2023-03-21T04:07:12;19.98;;;14.63;;
6547;SDS011;3307;52.416;16.862;2023-03-21T04:09:37;17.73;;;12.73;;
6547;SDS011;3307;52.416;16.862;2023-03-21T04:12:03;16.93;;;13.07;;
6547;SDS011;3307;52.416;16.862;2023-03-21T04:14:28;17.10;;;12.67;;
6547;SDS011;3307;52.416;16.862;2023-03-21T04:16:54;14.50;;;11.60;;
6547;SDS011;3307;52.416;16.862;2023-03-21T04:19:20;15.97;;;12.40;;
6547;SDS011;3307;52.416;16.862;2023-03-21T04:21:45;17.60;;;12.50;;
6547;SDS011;3307;52.416;16.862;2023-03-21T04:24:11;19.00;;;13.50;;
6547;SDS011;3307;52.416;16.862;2023-03-21T04:26:37;16.35;;;11.70;;
6547;SDS011;3307;52.416;16.862;2023-03-21T04:29:03;16.50;;;12.80;;
6547;SDS011;3307;52.416;16.862;2023-03-21T04:31:29;14.70;;;12.03;;
6547;SDS011;3307;52.416;16.862;2023-03-21T04:33:58;17.67;;;12.13;;
6547;SDS011;3307;52.416;16.862;2023-03-21T04:36:26;18.55;;;13.02;;
6547;SDS011;3307;52.416;16.862;2023-03-21T04:38:55;18.58;;;13.23;;
6547;SDS011;3307;52.416;16.862;2023-03-21T04:41:25;17.42;;;12.07;;
6547;SDS011;3307;52.416;16.862;2023-03-21T04:43:51;19.38;;;13.75;;
6547;SDS011;3307;52.416;16.862;2023-03-21T04:46:17;18.50;;;13.17;;
6547;SDS011;3307;52.416;16.862;2023-03-21T04:48:43;16.47;;;12.83;;
6547;SDS011;3307;52.416;16.862;2023-03-21T04:51:08;16.00;;;12.37;;
6547;SDS011;3307;52.416;16.862;2023-03-21T04:53:33;19.90;;;14.27;;
6547;SDS011;3307;52.416;16.862;2023-03-21T04:55:59;16.10;;;13.60;;
6547;SDS011;3307;52.416;16.862;2023-03-21T04:58:24;16.00;;;12.43;;
6547;SDS011;3307;52.416;16.862;2023-03-21T05:00:50;18.73;;;12.83;;
6547;SDS011;3307;52.416;16.862;2023-03-21T05:03:17;17.10;;;13.73;;
6547;SDS011;3307;52.416;16.862;2023-03-21T05:05:45;17.50;;;14.07;;
6547;SDS011;3307;52.416;16.862;2023-03-21T05:08:12;19.70;;;14.10;;
6547;SDS011;3307;52.416;16.862;2023-03-21T05:10:38;22.50;;;14.18;;
6547;SDS011;3307;52.416;16.862;2023-03-21T05:13:04;19.53;;;13.43;;
6547;SDS011;3307;52.416;16.862;2023-03-21T05:15:29;17.37;;;13.80;;
6547;SDS011;3307;52.416;16.862;2023-03-21T05:17:55;18.67;;;13.83;;
6547;SDS011;3307;52.416;16.862;2023-03-21T05:20:22;19.77;;;14.30;;
6547;SDS011;3307;52.416;16.862;2023-03-21T05:22:48;20.77;;;15.15;;
6547;SDS011;3307;52.416;16.862;2023-03-21T05:25:15;21.35;;;14.05;;
6547;SDS011;3307;52.416;16.862;2023-03-21T05:27:59;19.58;;;14.82;;
6547;SDS011;3307;52.416;16.862;2023-03-21T05:30:26;22.88;;;16.52;;
6547;SDS011;3307;52.416;16.862;2023-03-21T05:32:52;18.48;;;13.73;;
6547;SDS011;3307;52.416;16.862;2023-03-21T05:35:17;19.10;;;16.53;;
6547;SDS011;3307;52.416;16.862;2023-03-21T05:37:43;16.53;;;14.77;;
6547;SDS011;3307;52.416;16.862;2023-03-21T05:40:08;19.47;;;15.90;;
6547;SDS011;3307;52.416;16.862;2023-03-21T05:42:34;20.30;;;15.45;;
6547;SDS011;3307;52.416;16.862;2023-03-21T05:44:59;19.77;;;14.97;;
6547;SDS011;3307;52.416;16.862;2023-03-21T05:47:25;19.23;;;15.10;;
6547;SDS011;3307;52.416;16.862;2023-03-21T05:49:51;19.57;;;15.27;;
6547;SDS011;3307;52.416;16.862;2023-03-21T05:52:16;20.80;;;16.83;;
6547;SDS011;3307;52.416;16.862;2023-03-21T05:54:42;18.30;;;16.20;;
6547;SDS011;3307;52.416;16.862;2023-03-21T05:57:07;20.67;;;16.40;;
6547;SDS011;3307;52.416;16.862;2023-03-21T05:59:33;19.10;;;14.97;;
6547;SDS011;3307;52.416;16.862;2023-03-21T06:01:59;19.63;;;15.77;;
6547;SDS011;3307;52.416;16.862;2023-03-21T06:04:26;22.67;;;16.23;;
6547;SDS011;3307;52.416;16.862;2023-03-21T06:06:52;17.57;;;15.03;;
6547;SDS011;3307;52.416;16.862;2023-03-21T06:09:18;19.17;;;15.73;;
6547;SDS011;3307;52.416;16.862;2023-03-21T06:11:48;18.80;;;15.30;;
6547;SDS011;3307;52.416;16.862;2023-03-21T06:14:16;18.98;;;15.63;;
6547;SDS011;3307;52.416;16.862;2023-03-21T06:16:41;17.13;;;14.30;;
6547;SDS011;3307;52.416;16.862;2023-03-21T06:19:07;18.60;;;15.30;;
6547;SDS011;3307;52.416;16.862;2023-03-21T06:21:32;20.53;;;14.80;;
6547;SDS011;3307;52.416;16.862;2023-03-21T06:23:58;19.60;;;15.83;;
6547;SDS011;3307;52.416;16.862;2023-03-21T06:26:23;20.67;;;14.90;;
6547;SDS011;3307;52.416;16.862;2023-03-21T06:28:49;20.23;;;15.23;;
6547;SDS011;3307;52.416;16.862;2023-03-21T06:31:15;19.97;;;15.30;;
6547;SDS011;3307;52.416;16.862;2023-03-21T06:33:40;21.67;;;15.70;;
6547;SDS011;3307;52.416;16.862;2023-03-21T06:36:06;18.50;;;14.75;;
6547;SDS011;3307;52.416;16.862;2023-03-21T06:38:35;21.42;;;16.13;;
6547;SDS011;3307;52.416;16.862;2023-03-21T06:41:05;19.80;;;15.02;;
6547;SDS011;3307;52.416;16.862;2023-03-21T06:43:32;21.80;;;16.05;;
6547;SDS011;3307;52.416;16.862;2023-03-21T06:45:58;21.15;;;16.08;;
6547;SDS011;3307;52.416;16.862;2023-03-21T06:48:24;21.20;;;15.48;;
6547;SDS011;3307;52.416;16.862;2023-03-21T06:50:50;22.43;;;16.13;;
6547;SDS011;3307;52.416;16.862;2023-03-21T06:53:16;24.35;;;15.68;;
6547;SDS011;3307;52.416;16.862;2023-03-21T06:55:47;17.67;;;15.23;;
6547;SDS011;3307;52.416;16.862;2023-03-21T06:58:16;18.15;;;14.98;;
6547;SDS011;3307;52.416;16.862;2023-03-21T07:00:42;18.03;;;13.80;;
6547;SDS011;3307;52.416;16.862;2023-03-21T07:03:08;19.95;;;16.10;;
6547;SDS011;3307;52.416;16.862;2023-03-21T07:05:35;21.58;;;16.58;;
6547;SDS011;3307;52.416;16.862;2023-03-21T07:08:00;18.53;;;15.20;;
6547;SDS011;3307;52.416;16.862;2023-03-21T07:10:26;20.83;;;15.50;;
6547;SDS011;3307;52.416;16.862;2023-03-21T07:12:51;19.80;;;14.97;;
6547;SDS011;3307;52.416;16.862;2023-03-21T07:15:17;21.93;;;15.83;;
6547;SDS011;3307;52.416;16.862;2023-03-21T07:17:43;19.53;;;15.27;;
6547;SDS011;3307;52.416;16.862;2023-03-21T07:20:08;17.60;;;14.70;;
6547;SDS011;3307;52.416;16.862;2023-03-21T07:22:36;20.63;;;14.35;;
6547;SDS011;3307;52.416;16.862;2023-03-21T07:25:02;21.77;;;16.93;;
6547;SDS011;3307;52.416;16.862;2023-03-21T07:27:28;20.73;;;16.35;;
6547;SDS011;3307;52.416;16.862;2023-03-21T07:29:53;22.60;;;16.03;;
6547;SDS011;3307;52.416;16.862;2023-03-21T07:32:19;21.20;;;16.60;;
6547;SDS011;3307;52.416;16.862;2023-03-21T07:34:45;17.20;;;14.73;;
6547;SDS011;3307;52.416;16.862;2023-03-21T07:37:10;18.47;;;14.50;;
6547;SDS011;3307;52.416;16.862;2023-03-21T07:39:35;18.23;;;13.73;;
6547;SDS011;3307;52.416;16.862;2023-03-21T07:42:01;17.13;;;14.67;;
6547;SDS011;3307;52.416;16.862;2023-03-21T07:44:27;20.47;;;16.60;;
6547;SDS011;3307;52.416;16.862;2023-03-21T07:46:53;20.27;;;15.45;;
6547;SDS011;3307;52.416;16.862;2023-03-21T07:49:18;18.90;;;15.47;;
6547;SDS011;3307;52.416;16.862;2023-03-21T07:51:44;18.50;;;14.07;;
6547;SDS011;3307;52.416;16.862;2023-03-21T07:54:10;19.67;;;15.25;;
6547;SDS011;3307;52.416;16.862;2023-03-21T07:56:35;19.27;;;15.77;;
6547;SDS011;3307;52.416;16.862;2023-03-21T07:59:01;17.97;;;15.03;;
6547;SDS011;3307;52.416;16.862;2023-03-21T08:01:26;18.03;;;14.97;;
6547;SDS011;3307;52.416;16.862;2023-03-21T08:03:52;21.60;;;15.13;;
6547;SDS011;3307;52.416;16.862;2023-03-21T08:06:20;16.70;;;14.23;;
6547;SDS011;3307;52.416;16.862;2023-03-21T08:08:46;17.70;;;15.70;;
6547;SDS011;3307;52.416;16.862;2023-03-21T08:11:12;20.10;;;16.20;;
6547;SDS011;3307;52.416;16.862;2023-03-21T08:13:38;17.20;;;15.40;;
6547;SDS011;3307;52.416;16.862;2023-03-21T08:16:04;17.30;;;15.50;;
6547;SDS011;3307;52.416;16.862;2023-03-21T08:18:30;20.13;;;15.47;;
6547;SDS011;3307;52.416;16.862;2023-03-21T08:20:55;21.43;;;15.33;;
6547;SDS011;3307;52.416;16.862;2023-03-21T08:23:21;22.95;;;18.90;;
6547;SDS011;3307;52.416;16.862;2023-03-21T08:25:55;20.02;;;17.30;;
6547;SDS011;3307;52.416;16.862;2023-03-21T08:28:22;20.02;;;15.85;;
6547;SDS011;3307;52.416;16.862;2023-03-21T08:30:48;18.73;;;16.70;;
6547;SDS011;3307;52.416;16.862;2023-03-21T08:33:14;21.75;;;17.17;;
6547;SDS011;3307;52.416;16.862;2023-03-21T08:35:41;20.45;;;17.63;;
6547;SDS011;3307;52.416;16.862;2023-03-21T08:38:07;25.30;;;18.17;;
6547;SDS011;3307;52.416;16.862;2023-03-21T08:40:34;19.52;;;17.25;;
6547;SDS011;3307;52.416;16.862;2023-03-21T08:42:59;20.23;;;17.50;;
6547;SDS011;3307;52.416;16.862;2023-03-21T08:45:25;25.13;;;18.10;;
6547;SDS011;3307;52.416;16.862;2023-03-21T08:47:51;24.58;;;18.85;;
6547;SDS011;3307;52.416;16.862;2023-03-21T08:50:18;20.23;;;17.42;;
6547;SDS011;3307;52.416;16.862;2023-03-21T08:52:46;22.73;;;19.08;;
6547;SDS011;3307;52.416;16.862;2023-03-21T08:55:12;20.48;;;17.13;;
6547;SDS011;3307;52.416;16.862;2023-03-21T08:57:38;21.45;;;17.63;;
6547;SDS011;3307;52.416;16.862;2023-03-21T09:00:04;21.53;;;18.27;;
6547;SDS011;3307;52.416;16.862;2023-03-21T09:02:36;20.80;;;18.20;;
6547;SDS011;3307;52.416;16.862;2023-03-21T09:05:01;21.67;;;19.23;;
6547;SDS011;3307;52.416;16.862;2023-03-21T09:07:30;19.40;;;16.75;;
6547;SDS011;3307;52.416;16.862;2023-03-21T09:09:58;21.50;;;17.83;;
6547;SDS011;3307;52.416;16.862;2023-03-21T09:12:24;17.95;;;16.02;;
6547;SDS011;3307;52.416;16.862;2023-03-21T09:14:49;18.53;;;16.23;;
6547;SDS011;3307;52.416;16.862;2023-03-21T09:17:17;19.83;;;16.40;;
6547;SDS011;3307;52.416;16.862;2023-03-21T09:19:42;18.87;;;16.40;;
6547;SDS011;3307;52.416;16.862;2023-03-21T09:22:08;17.80;;;16.00;;
6547;SDS011;3307;52.416;16.862;2023-03-21T09:24:41;18.05;;;16.20;;
6547;SDS011;3307;52.416;16.862;2023-03-21T09:27:07;18.23;;;15.60;;
6547;SDS011;3307;52.416;16.862;2023-03-21T09:29:33;17.03;;;15.27;;
6547;SDS011;3307;52.416;16.862;2023-03-21T09:31:59;16.60;;;14.40;;
6547;SDS011;3307;52.416;16.862;2023-03-21T09:34:25;18.55;;;15.75;;
6547;SDS011;3307;52.416;16.862;2023-03-21T09:36:51;16.85;;;15.10;;
6547;SDS011;3307;52.416;16.862;2023-03-21T09:39:20;18.60;;;16.63;;
6547;SDS011;3307;52.416;16.862;2023-03-21T09:47:11;18.45;;;15.70;;
6547;SDS011;3307;52.416;16.862;2023-03-21T09:49:56;17.65;;;16.05;;
6547;SDS011;3307;52.416;16.862;2023-03-21T09:52:29;20.27;;;16.70;;
6547;SDS011;3307;52.416;16.862;2023-03-21T09:54:58;18.80;;;16.98;;
6547;SDS011;3307;52.416;16.862;2023-03-21T09:57:40;19.08;;;17.08;;
6547;SDS011;3307;52.416;16.862;2023-03-21T10:00:10;18.75;;;16.67;;
6547;SDS011;3307;52.416;16.862;2023-03-21T10:02:47;18.30;;;16.50;;
6547;SDS011;3307;52.416;16.862;2023-03-21T10:05:22;22.80;;;16.30;;
6547;SDS011;3307;52.416;16.862;2023-03-21T10:10:18;21.88;;;16.90;;
6547;SDS011;3307;52.416;16.862;2023-03-21T10:12:46;20.00;;;18.05;;
6547;SDS011;3307;52.416;16.862;2023-03-21T10:15:20;19.05;;;17.35;;
6547;SDS011;3307;52.416;16.862;2023-03-21T10:17:49;18.60;;;16.50;;
6547;SDS011;3307;52.416;16.862;2023-03-21T10:20:29;19.60;;;16.10;;
6547;SDS011;3307;52.416;16.862;2023-03-21T10:23:05;19.55;;;17.45;;
6547;SDS011;3307;52.416;16.862;2023-03-21T10:25:33;20.20;;;18.10;;
6547;SDS011;3307;52.416;16.862;2023-03-21T10:28:01;20.70;;;18.55;;
6547;SDS011;3307;52.416;16.862;2023-03-21T10:30:41;20.33;;;18.15;;
6547;SDS011;3307;52.416;16.862;2023-03-21T10:33:52;19.13;;;17.23;;
6547;SDS011;3307;52.416;16.862;2023-03-21T10:36:01;21.98;;;19.17;;
6547;SDS011;3307;52.416;16.862;2023-03-21T10:38:29;20.55;;;18.42;;
6547;SDS011;3307;52.416;16.862;2023-03-21T10:40:55;21.07;;;18.87;;
6547;SDS011;3307;52.416;16.862;2023-03-21T10:45:53;21.10;;;18.88;;
6547;SDS011;3307;52.416;16.862;2023-03-21T10:48:20;21.45;;;19.27;;
6547;SDS011;3307;52.416;16.862;2023-03-21T10:50:46;20.88;;;18.83;;
6547;SDS011;3307;52.416;16.862;2023-03-21T10:53:29;24.55;;;19.35;;
6547;SDS011;3307;52.416;16.862;2023-03-21T10:55:58;19.23;;;17.27;;
6547;SDS011;3307;52.416;16.862;2023-03-21T10:58:25;20.52;;;18.42;;
6547;SDS011;3307;52.416;16.862;2023-03-21T11:00:53;24.23;;;19.95;;
6547;SDS011;3307;52.416;16.862;2023-03-21T11:03:37;22.80;;;20.40;;
6547;SDS011;3307;52.416;16.862;2023-03-21T11:08:59;19.30;;;17.30;;
6547;SDS011;3307;52.416;16.862;2023-03-21T11:11:33;19.87;;;17.77;;
6547;SDS011;3307;52.416;16.862;2023-03-21T11:13:59;21.80;;;17.83;;
6547;SDS011;3307;52.416;16.862;2023-03-21T11:16:34;18.93;;;17.00;;
6547;SDS011;3307;52.416;16.862;2023-03-21T11:19:51;18.87;;;16.97;;
6547;SDS011;3307;52.416;16.862;2023-03-21T11:21:55;17.47;;;15.77;;
6547;SDS011;3307;52.416;16.862;2023-03-21T11:24:21;18.87;;;17.10;;
6547;SDS011;3307;52.416;16.862;2023-03-21T11:26:47;21.00;;;17.60;;
6547;SDS011;3307;52.416;16.862;2023-03-21T11:31:48;19.00;;;16.87;;
6547;SDS011;3307;52.416;16.862;2023-03-21T11:36:59;15.97;;;14.50;;
6547;SDS011;3307;52.416;16.862;2023-03-21T11:39:29;17.70;;;16.10;;
6547;SDS011;3307;52.416;16.862;2023-03-21T11:41:57;17.63;;;15.73;;
6547;SDS011;3307;52.416;16.862;2023-03-21T11:44:24;20.30;;;17.60;;
6547;SDS011;3307;52.416;16.862;2023-03-21T11:46:57;17.97;;;16.07;;
6547;SDS011;3307;52.416;16.862;2023-03-21T11:49:23;17.73;;;15.93;;
6547;SDS011;3307;52.416;16.862;2023-03-21T12:00:50;17.27;;;15.60;;
6547;SDS011;3307;52.416;16.862;2023-03-21T12:04:00;17.27;;;15.57;;
6547;SDS011;3307;52.416;16.862;2023-03-21T12:06:11;19.50;;;17.50;;
6547;SDS011;3307;52.416;16.862;2023-03-21T12:08:45;18.57;;;16.67;;
6547;SDS011;3307;52.416;16.862;2023-03-21T12:14:02;18.90;;;17.00;;
6547;SDS011;3307;52.416;16.862;2023-03-21T12:22:12;13.90;;;12.40;;
6547;SDS011;3307;52.416;16.862;2023-03-21T12:25:09;16.67;;;11.17;;
6547;SDS011;3307;52.416;16.862;2023-03-21T12:30:47;12.07;;;11.07;;
6547;SDS011;3307;52.416;16.862;2023-03-21T12:36:28;12.93;;;11.60;;
6547;SDS011;3307;52.416;16.862;2023-03-21T12:41:49;12.77;;;11.47;;
6547;SDS011;3307;52.416;16.862;2023-03-21T12:44:23;12.00;;;10.87;;
6547;SDS011;3307;52.416;16.862;2023-03-21T12:46:54;12.10;;;11.00;;
6547;SDS011;3307;52.416;16.862;2023-03-21T12:52:05;14.40;;;13.10;;
6547;SDS011;3307;52.416;16.862;2023-03-21T12:54:38;14.10;;;12.40;;
6547;SDS011;3307;52.416;16.862;2023-03-21T12:57:07;14.47;;;13.10;;
6547;SDS011;3307;52.416;16.862;2023-03-21T12:59:54;14.73;;;13.37;;
6547;SDS011;3307;52.416;16.862;2023-03-21T13:02:31;15.30;;;13.83;;
6547;SDS011;3307;52.416;16.862;2023-03-21T13:05:06;15.17;;;13.57;;
6547;SDS011;3307;52.416;16.862;2023-03-21T13:07:41;14.93;;;13.50;;
6547;SDS011;3307;52.416;16.862;2023-03-21T13:10:14;14.60;;;13.03;;
6547;SDS011;3307;52.416;16.862;2023-03-21T13:18:18;14.67;;;13.37;;
6547;SDS011;3307;52.416;16.862;2023-03-21T13:23:41;16.73;;;14.93;;
6547;SDS011;3307;52.416;16.862;2023-03-21T13:26:20;21.00;;;18.80;;
6547;SDS011;3307;52.416;16.862;2023-03-21T13:28:45;18.10;;;16.50;;
6547;SDS011;3307;52.416;16.862;2023-03-21T13:31:16;17.60;;;15.87;;
6547;SDS011;3307;52.416;16.862;2023-03-21T13:33:50;19.37;;;16.33;;
6547;SDS011;3307;52.416;16.862;2023-03-21T13:36:21;19.53;;;17.47;;
6547;SDS011;3307;52.416;16.862;2023-03-21T13:38:51;20.73;;;16.90;;
6547;SDS011;3307;52.416;16.862;2023-03-21T13:51:51;21.10;;;18.80;;
6547;SDS011;3307;52.416;16.862;2023-03-21T13:59:17;22.70;;;19.05;;
6547;SDS011;3307;52.416;16.862;2023-03-21T14:04:46;21.90;;;17.20;;
6547;SDS011;3307;52.416;16.862;2023-03-21T14:07:29;16.60;;;14.30;;
6547;SDS011;3307;52.416;16.862;2023-03-21T14:09:58;17.90;;;15.93;;
6547;SDS011;3307;52.416;16.862;2023-03-21T14:12:28;17.83;;;16.13;;
6547;SDS011;3307;52.416;16.862;2023-03-21T14:14:59;18.30;;;16.60;;
6547;SDS011;3307;52.416;16.862;2023-03-21T14:17:30;19.07;;;16.40;;
6547;SDS011;3307;52.416;16.862;2023-03-21T14:22:31;18.63;;;16.63;;
6547;SDS011;3307;52.416;16.862;2023-03-21T14:25:00;19.37;;;17.37;;
6547;SDS011;3307;52.416;16.862;2023-03-21T14:27:33;18.03;;;16.17;;
6547;SDS011;3307;52.416;16.862;2023-03-21T14:29:59;20.30;;;18.10;;
6547;SDS011;3307;52.416;16.862;2023-03-21T14:32:26;19.47;;;17.40;;
6547;SDS011;3307;52.416;16.862;2023-03-21T14:34:53;20.50;;;18.30;;
6547;SDS011;3307;52.416;16.862;2023-03-21T14:37:52;23.53;;;17.50;;
6547;SDS011;3307;52.416;16.862;2023-03-21T14:40:19;20.33;;;18.30;;
6547;SDS011;3307;52.416;16.862;2023-03-21T14:42:48;19.83;;;17.83;;
6547;SDS011;3307;52.416;16.862;2023-03-21T14:45:15;20.70;;;18.60;;
6547;SDS011;3307;52.416;16.862;2023-03-21T14:47:56;21.83;;;19.63;;
6547;SDS011;3307;52.416;16.862;2023-03-21T14:50:45;20.50;;;18.40;;
6547;SDS011;3307;52.416;16.862;2023-03-21T14:53:19;22.50;;;18.13;;
6547;SDS011;3307;52.416;16.862;2023-03-21T14:55:53;23.47;;;19.50;;
6547;SDS011;3307;52.416;16.862;2023-03-21T14:58:23;22.07;;;19.80;;
6547;SDS011;3307;52.416;16.862;2023-03-21T15:00:50;19.23;;;17.42;;
6547;SDS011;3307;52.416;16.862;2023-03-21T15:03:16;18.17;;;16.47;;
6547;SDS011;3307;52.416;16.862;2023-03-21T15:05:43;18.95;;;17.05;;
6547;SDS011;3307;52.416;16.862;2023-03-21T15:08:19;20.90;;;18.50;;
6547;SDS011;3307;52.416;16.862;2023-03-21T15:10:53;20.02;;;18.00;;
6547;SDS011;3307;52.416;16.862;2023-03-21T15:13:30;21.05;;;18.90;;
6547;SDS011;3307;52.416;16.862;2023-03-21T15:16:00;23.05;;;20.77;;
6547;SDS011;3307;52.416;16.862;2023-03-21T15:18:27;21.10;;;18.80;;
6547;SDS011;3307;52.416;16.862;2023-03-21T15:20:54;19.42;;;17.33;;
6547;SDS011;3307;52.416;16.862;2023-03-21T15:23:25;20.58;;;17.90;;
6547;SDS011;3307;52.416;16.862;2023-03-21T15:25:54;19.05;;;17.15;;
6547;SDS011;3307;52.416;16.862;2023-03-21T15:28:20;18.33;;;15.37;;
6547;SDS011;3307;52.416;16.862;2023-03-21T15:30:46;19.30;;;15.43;;
6547;SDS011;3307;52.416;16.862;2023-03-21T15:33:14;18.45;;;16.45;;
6547;SDS011;3307;52.416;16.862;2023-03-21T15:35:40;20.13;;;17.33;;
6547;SDS011;3307;52.416;16.862;2023-03-21T15:38:24;19.75;;;17.75;;
6547;SDS011;3307;52.416;16.862;2023-03-21T15:43:39;22.00;;;19.00;;
6547;SDS011;3307;52.416;16.862;2023-03-21T15:46:12;21.70;;;18.63;;
6547;SDS011;3307;52.416;16.862;2023-03-21T15:48:41;20.70;;;18.23;;
6547;SDS011;3307;52.416;16.862;2023-03-21T15:51:17;23.83;;;19.07;;
6547;SDS011;3307;52.416;16.862;2023-03-21T15:53:45;21.58;;;18.83;;
6547;SDS011;3307;52.416;16.862;2023-03-21T15:56:11;21.50;;;19.20;;
6547;SDS011;3307;52.416;16.862;2023-03-21T15:58:43;24.90;;;20.08;;
6547;SDS011;3307;52.416;16.862;2023-03-21T16:01:12;24.05;;;20.13;;
6547;SDS011;3307;52.416;16.862;2023-03-21T16:03:41;22.20;;;19.77;;
6547;SDS011;3307;52.416;16.862;2023-03-21T16:08:36;21.43;;;19.30;;
6547;SDS011;3307;52.416;16.862;2023-03-21T16:11:07;20.75;;;18.27;;
6547;SDS011;3307;52.416;16.862;2023-03-21T16:13:39;21.48;;;19.30;;
6547;SDS011;3307;52.416;16.862;2023-03-21T16:16:04;21.97;;;19.63;;
6547;SDS011;3307;52.416;16.862;2023-03-21T16:18:30;23.37;;;19.00;;
6547;SDS011;3307;52.416;16.862;2023-03-21T16:20:56;23.20;;;20.30;;
6547;SDS011;3307;52.416;16.862;2023-03-21T16:23:23;22.77;;;20.52;;
6547;SDS011;3307;52.416;16.862;2023-03-21T16:25:49;24.55;;;20.70;;
6547;SDS011;3307;52.416;16.862;2023-03-21T16:28:21;24.27;;;21.67;;
6547;SDS011;3307;52.416;16.862;2023-03-21T16:30:47;25.03;;;21.40;;
6547;SDS011;3307;52.416;16.862;2023-03-21T16:33:12;25.63;;;22.50;;
6547;SDS011;3307;52.416;16.862;2023-03-21T16:35:38;26.63;;;22.73;;
6547;SDS011;3307;52.416;16.862;2023-03-21T16:38:04;24.67;;;21.50;;